sensor_id;sensor_type;location;lat;lon;timestamp;temperature;humidity
7341;DHT22;6870;50.944;6.932;2023-03-01T00:01:41;19.00;22.60
7341;DHT22;6870;50.944;6.932;2023-03-01T00:04:09;18.80;22.40
7341;DHT22;6870;50.944;6.932;2023-03-01T00:06:37;18.80;22.40
7341;DHT22;6870;50.944;6.932;2023-03-01T00:09:05;18.90;22.50
7341;DHT22;6870;50.944;6.932;2023-03-01T00:11:34;18.60;22.40
7341;DHT22;6870;50.944;6.932;2023-03-01T00:14:02;18.80;22.40
7341;DHT22;6870;50.944;6.932;2023-03-01T00:16:35;18.60;22.20
7341;DHT22;6870;50.944;6.932;2023-03-01T00:19:09;18.90;22.60
7341;DHT22;6870;50.944;6.932;2023-03-01T00:21:40;18.90;22.60
7341;DHT22;6870;50.944;6.932;2023-03-01T00:24:08;18.70;22.40
7341;DHT22;6870;50.944;6.932;2023-03-01T00:26:37;18.80;22.30
7341;DHT22;6870;50.944;6.932;2023-03-01T00:29:06;18.70;22.50
7341;DHT22;6870;50.944;6.932;2023-03-01T00:31:34;18.30;22.40
7341;DHT22;6870;50.944;6.932;2023-03-01T00:34:04;18.60;22.80
7341;DHT22;6870;50.944;6.932;2023-03-01T00:36:36;18.90;23.20
7341;DHT22;6870;50.944;6.932;2023-03-01T00:39:07;18.30;22.80
7341;DHT22;6870;50.944;6.932;2023-03-01T00:41:37;18.50;22.50
7341;DHT22;6870;50.944;6.932;2023-03-01T00:44:07;18.90;23.20
7341;DHT22;6870;50.944;6.932;2023-03-01T00:46:35;18.60;23.10
7341;DHT22;6870;50.944;6.932;2023-03-01T00:49:03;18.90;23.40
7341;DHT22;6870;50.944;6.932;2023-03-01T00:51:31;18.60;23.30
7341;DHT22;6870;50.944;6.932;2023-03-01T00:54:02;18.60;23.30
7341;DHT22;6870;50.944;6.932;2023-03-01T00:56:30;18.20;23.20
7341;DHT22;6870;50.944;6.932;2023-03-01T00:58:59;18.20;22.70
7341;DHT22;6870;50.944;6.932;2023-03-01T01:01:29;18.30;23.20
7341;DHT22;6870;50.944;6.932;2023-03-01T01:04:00;18.90;23.60
7341;DHT22;6870;50.944;6.932;2023-03-01T01:06:31;18.30;23.20
7341;DHT22;6870;50.944;6.932;2023-03-01T01:09:02;18.50;23.50
7341;DHT22;6870;50.944;6.932;2023-03-01T01:11:32;18.90;23.50
7341;DHT22;6870;50.944;6.932;2023-03-01T01:14:01;18.20;23.20
7341;DHT22;6870;50.944;6.932;2023-03-01T01:16:29;18.60;23.50
7341;DHT22;6870;50.944;6.932;2023-03-01T01:18:58;18.50;23.40
7341;DHT22;6870;50.944;6.932;2023-03-01T01:21:27;18.40;23.20
7341;DHT22;6870;50.944;6.932;2023-03-01T01:23:56;18.70;23.80
7341;DHT22;6870;50.944;6.932;2023-03-01T01:26:28;18.50;23.80
7341;DHT22;6870;50.944;6.932;2023-03-01T01:28:58;18.90;23.50
7341;DHT22;6870;50.944;6.932;2023-03-01T01:31:28;18.30;24.10
7341;DHT22;6870;50.944;6.932;2023-03-01T01:33:58;18.60;23.60
7341;DHT22;6870;50.944;6.932;2023-03-01T01:36:27;18.90;24.10
7341;DHT22;6870;50.944;6.932;2023-03-01T01:38:56;18.40;23.70
7341;DHT22;6870;50.944;6.932;2023-03-01T01:41:27;18.70;24.10
7341;DHT22;6870;50.944;6.932;2023-03-01T01:44:12;18.40;23.70
7341;DHT22;6870;50.944;6.932;2023-03-01T01:46:44;18.20;23.70
7341;DHT22;6870;50.944;6.932;2023-03-01T01:49:22;18.20;23.70
7341;DHT22;6870;50.944;6.932;2023-03-01T01:51:57;18.60;23.30
7341;DHT22;6870;50.944;6.932;2023-03-01T01:54:36;18.20;23.70
7341;DHT22;6870;50.944;6.932;2023-03-01T01:57:14;18.30;23.80
7341;DHT22;6870;50.944;6.932;2023-03-01T01:59:45;18.90;23.70
7341;DHT22;6870;50.944;6.932;2023-03-01T02:02:16;18.60;23.70
7341;DHT22;6870;50.944;6.932;2023-03-01T02:04:45;18.40;23.80
7341;DHT22;6870;50.944;6.932;2023-03-01T02:07:16;18.50;24.00
7341;DHT22;6870;50.944;6.932;2023-03-01T02:09:47;18.60;24.00
7341;DHT22;6870;50.944;6.932;2023-03-01T02:12:19;18.50;24.30
7341;DHT22;6870;50.944;6.932;2023-03-01T02:14:49;18.50;23.80
7341;DHT22;6870;50.944;6.932;2023-03-01T02:17:18;18.20;23.90
7341;DHT22;6870;50.944;6.932;2023-03-01T02:19:55;18.10;24.20
7341;DHT22;6870;50.944;6.932;2023-03-01T02:22:37;18.10;24.10
7341;DHT22;6870;50.944;6.932;2023-03-01T02:25:19;18.60;24.20
7341;DHT22;6870;50.944;6.932;2023-03-01T02:27:55;18.30;24.20
7341;DHT22;6870;50.944;6.932;2023-03-01T02:30:29;18.20;24.20
7341;DHT22;6870;50.944;6.932;2023-03-01T02:33:00;18.70;24.50
7341;DHT22;6870;50.944;6.932;2023-03-01T02:35:31;18.40;23.90
7341;DHT22;6870;50.944;6.932;2023-03-01T02:38:01;18.90;24.60
7341;DHT22;6870;50.944;6.932;2023-03-01T02:40:31;18.20;24.30
7341;DHT22;6870;50.944;6.932;2023-03-01T02:43:04;18.10;24.70
7341;DHT22;6870;50.944;6.932;2023-03-01T02:45:35;18.30;24.70
7341;DHT22;6870;50.944;6.932;2023-03-01T02:48:03;18.10;25.20
7341;DHT22;6870;50.944;6.932;2023-03-01T02:50:50;18.10;24.50
7341;DHT22;6870;50.944;6.932;2023-03-01T02:53:25;18.10;24.60
7341;DHT22;6870;50.944;6.932;2023-03-01T02:55:56;18.50;24.90
7341;DHT22;6870;50.944;6.932;2023-03-01T02:58:24;18.20;24.70
7341;DHT22;6870;50.944;6.932;2023-03-01T03:00:54;18.60;24.90
7341;DHT22;6870;50.944;6.932;2023-03-01T03:03:23;18.20;24.50
7341;DHT22;6870;50.944;6.932;2023-03-01T03:05:51;18.20;24.70
7341;DHT22;6870;50.944;6.932;2023-03-01T03:08:19;18.50;24.60
7341;DHT22;6870;50.944;6.932;2023-03-01T03:10:50;18.20;24.70
7341;DHT22;6870;50.944;6.932;2023-03-01T03:13:19;18.20;24.60
7341;DHT22;6870;50.944;6.932;2023-03-01T03:15:48;18.20;24.80
7341;DHT22;6870;50.944;6.932;2023-03-01T03:18:17;18.00;24.80
7341;DHT22;6870;50.944;6.932;2023-03-01T03:20:46;18.20;25.00
7341;DHT22;6870;50.944;6.932;2023-03-01T03:23:19;18.50;25.20
7341;DHT22;6870;50.944;6.932;2023-03-01T03:25:48;18.20;24.90
7341;DHT22;6870;50.944;6.932;2023-03-01T03:28:17;18.50;25.20
7341;DHT22;6870;50.944;6.932;2023-03-01T03:30:45;18.00;24.90
7341;DHT22;6870;50.944;6.932;2023-03-01T03:33:14;18.10;25.10
7341;DHT22;6870;50.944;6.932;2023-03-01T03:35:45;18.00;24.90
7341;DHT22;6870;50.944;6.932;2023-03-01T03:38:16;18.20;25.00
7341;DHT22;6870;50.944;6.932;2023-03-01T03:40:47;18.30;24.90
7341;DHT22;6870;50.944;6.932;2023-03-01T03:43:17;18.40;25.20
7341;DHT22;6870;50.944;6.932;2023-03-01T03:45:48;18.40;25.10
7341;DHT22;6870;50.944;6.932;2023-03-01T03:48:19;18.10;25.10
7341;DHT22;6870;50.944;6.932;2023-03-01T03:50:50;18.50;25.60
7341;DHT22;6870;50.944;6.932;2023-03-01T03:53:20;18.20;25.40
7341;DHT22;6870;50.944;6.932;2023-03-01T03:55:48;18.10;25.20
7341;DHT22;6870;50.944;6.932;2023-03-01T03:58:19;18.20;25.10
7341;DHT22;6870;50.944;6.932;2023-03-01T04:00:50;18.10;25.20
7341;DHT22;6870;50.944;6.932;2023-03-01T04:03:20;18.20;25.40
7341;DHT22;6870;50.944;6.932;2023-03-01T04:05:50;18.10;25.40
7341;DHT22;6870;50.944;6.932;2023-03-01T04:08:20;18.10;25.40
7341;DHT22;6870;50.944;6.932;2023-03-01T04:10:51;18.30;25.70
7341;DHT22;6870;50.944;6.932;2023-03-01T04:13:21;18.10;25.40
7341;DHT22;6870;50.944;6.932;2023-03-01T04:15:52;18.10;25.50
7341;DHT22;6870;50.944;6.932;2023-03-01T04:18:24;18.50;25.80
7341;DHT22;6870;50.944;6.932;2023-03-01T04:20:54;18.10;25.40
7341;DHT22;6870;50.944;6.932;2023-03-01T04:23:22;18.20;25.40
7341;DHT22;6870;50.944;6.932;2023-03-01T04:25:52;18.20;25.40
7341;DHT22;6870;50.944;6.932;2023-03-01T04:28:22;18.30;25.60
7341;DHT22;6870;50.944;6.932;2023-03-01T04:30:52;18.00;25.10
7341;DHT22;6870;50.944;6.932;2023-03-01T04:33:21;18.10;25.60
7341;DHT22;6870;50.944;6.932;2023-03-01T04:35:50;18.20;25.50
7341;DHT22;6870;50.944;6.932;2023-03-01T04:38:20;18.10;25.60
7341;DHT22;6870;50.944;6.932;2023-03-01T04:40:48;18.30;25.90
7341;DHT22;6870;50.944;6.932;2023-03-01T04:43:16;18.20;25.80
7341;DHT22;6870;50.944;6.932;2023-03-01T04:45:44;18.30;25.70
7341;DHT22;6870;50.944;6.932;2023-03-01T04:48:12;18.10;25.50
7341;DHT22;6870;50.944;6.932;2023-03-01T04:50:40;18.10;25.60
7341;DHT22;6870;50.944;6.932;2023-03-01T04:53:08;17.80;26.20
7341;DHT22;6870;50.944;6.932;2023-03-01T04:55:38;18.10;26.10
7341;DHT22;6870;50.944;6.932;2023-03-01T04:58:06;18.10;26.10
7341;DHT22;6870;50.944;6.932;2023-03-01T05:00:34;18.30;25.90
7341;DHT22;6870;50.944;6.932;2023-03-01T05:03:02;18.50;25.80
7341;DHT22;6870;50.944;6.932;2023-03-01T05:05:31;18.30;25.80
7341;DHT22;6870;50.944;6.932;2023-03-01T05:08:02;18.20;25.70
7341;DHT22;6870;50.944;6.932;2023-03-01T05:10:34;18.40;25.80
7341;DHT22;6870;50.944;6.932;2023-03-01T05:13:04;18.20;25.80
7341;DHT22;6870;50.944;6.932;2023-03-01T05:15:33;18.20;26.00
7341;DHT22;6870;50.944;6.932;2023-03-01T05:18:03;18.10;25.80
7341;DHT22;6870;50.944;6.932;2023-03-01T05:20:33;18.00;25.90
7341;DHT22;6870;50.944;6.932;2023-03-01T05:23:02;18.40;26.10
7341;DHT22;6870;50.944;6.932;2023-03-01T05:25:33;18.00;26.00
7341;DHT22;6870;50.944;6.932;2023-03-01T05:28:11;18.00;26.30
7341;DHT22;6870;50.944;6.932;2023-03-01T05:30:39;18.00;26.30
7341;DHT22;6870;50.944;6.932;2023-03-01T05:33:08;18.00;26.20
7341;DHT22;6870;50.944;6.932;2023-03-01T05:35:40;18.10;26.00
7341;DHT22;6870;50.944;6.932;2023-03-01T05:38:09;18.20;26.30
7341;DHT22;6870;50.944;6.932;2023-03-01T05:40:40;18.20;26.10
7341;DHT22;6870;50.944;6.932;2023-03-01T05:43:10;18.30;26.10
7341;DHT22;6870;50.944;6.932;2023-03-01T05:45:39;18.30;26.20
7341;DHT22;6870;50.944;6.932;2023-03-01T05:48:08;18.00;25.30
7341;DHT22;6870;50.944;6.932;2023-03-01T05:50:39;17.80;24.50
7341;DHT22;6870;50.944;6.932;2023-03-01T05:53:10;17.90;24.10
7341;DHT22;6870;50.944;6.932;2023-03-01T05:55:39;17.30;23.10
7341;DHT22;6870;50.944;6.932;2023-03-01T05:58:12;17.60;22.80
7341;DHT22;6870;50.944;6.932;2023-03-01T06:00:42;17.60;23.70
7341;DHT22;6870;50.944;6.932;2023-03-01T06:03:12;17.90;23.20
7341;DHT22;6870;50.944;6.932;2023-03-01T06:05:43;18.00;23.90
7341;DHT22;6870;50.944;6.932;2023-03-01T06:08:12;18.00;24.00
7341;DHT22;6870;50.944;6.932;2023-03-01T06:10:40;18.00;24.20
7341;DHT22;6870;50.944;6.932;2023-03-01T06:13:08;17.70;24.70
7341;DHT22;6870;50.944;6.932;2023-03-01T06:15:38;17.90;25.20
7341;DHT22;6870;50.944;6.932;2023-03-01T06:18:06;18.00;25.30
7341;DHT22;6870;50.944;6.932;2023-03-01T06:20:34;18.00;25.40
7341;DHT22;6870;50.944;6.932;2023-03-01T06:23:02;17.90;25.30
7341;DHT22;6870;50.944;6.932;2023-03-01T06:25:31;18.10;25.70
7341;DHT22;6870;50.944;6.932;2023-03-01T06:27:59;18.10;25.40
7341;DHT22;6870;50.944;6.932;2023-03-01T06:30:29;18.20;25.30
7341;DHT22;6870;50.944;6.932;2023-03-01T06:32:57;18.20;25.20
7341;DHT22;6870;50.944;6.932;2023-03-01T06:35:27;17.90;24.80
7341;DHT22;6870;50.944;6.932;2023-03-01T06:37:58;17.70;24.60
7341;DHT22;6870;50.944;6.932;2023-03-01T06:40:27;18.00;24.70
7341;DHT22;6870;50.944;6.932;2023-03-01T06:42:55;18.10;24.60
7341;DHT22;6870;50.944;6.932;2023-03-01T06:45:23;18.20;24.40
7341;DHT22;6870;50.944;6.932;2023-03-01T06:48:01;18.20;24.40
7341;DHT22;6870;50.944;6.932;2023-03-01T06:50:31;18.00;24.20
7341;DHT22;6870;50.944;6.932;2023-03-01T06:52:59;18.10;24.30
7341;DHT22;6870;50.944;6.932;2023-03-01T06:55:27;18.10;23.80
7341;DHT22;6870;50.944;6.932;2023-03-01T06:57:56;18.40;24.30
7341;DHT22;6870;50.944;6.932;2023-03-01T07:00:25;18.30;24.20
7341;DHT22;6870;50.944;6.932;2023-03-01T07:02:58;17.90;23.80
7341;DHT22;6870;50.944;6.932;2023-03-01T07:05:28;18.10;23.80
7341;DHT22;6870;50.944;6.932;2023-03-01T07:07:57;18.20;23.70
7341;DHT22;6870;50.944;6.932;2023-03-01T07:10:25;18.20;23.90
7341;DHT22;6870;50.944;6.932;2023-03-01T07:12:55;18.00;23.90
7341;DHT22;6870;50.944;6.932;2023-03-01T07:15:24;18.00;23.80
7341;DHT22;6870;50.944;6.932;2023-03-01T07:17:52;18.10;23.90
7341;DHT22;6870;50.944;6.932;2023-03-01T07:20:22;18.20;23.60
7341;DHT22;6870;50.944;6.932;2023-03-01T07:22:51;18.10;23.80
7341;DHT22;6870;50.944;6.932;2023-03-01T07:25:20;18.10;23.70
7341;DHT22;6870;50.944;6.932;2023-03-01T07:27:49;18.20;23.80
7341;DHT22;6870;50.944;6.932;2023-03-01T07:30:19;18.20;23.90
7341;DHT22;6870;50.944;6.932;2023-03-01T07:32:47;18.00;23.90
7341;DHT22;6870;50.944;6.932;2023-03-01T07:35:16;18.20;24.10
7341;DHT22;6870;50.944;6.932;2023-03-01T07:37:45;18.40;24.10
7341;DHT22;6870;50.944;6.932;2023-03-01T07:40:13;17.90;23.80
7341;DHT22;6870;50.944;6.932;2023-03-01T07:42:41;18.30;24.20
7341;DHT22;6870;50.944;6.932;2023-03-01T07:45:10;18.10;24.00
7341;DHT22;6870;50.944;6.932;2023-03-01T07:47:40;18.10;24.00
7341;DHT22;6870;50.944;6.932;2023-03-01T07:50:09;18.10;23.90
7341;DHT22;6870;50.944;6.932;2023-03-01T07:52:37;18.00;24.00
7341;DHT22;6870;50.944;6.932;2023-03-01T07:55:08;18.00;24.00
7341;DHT22;6870;50.944;6.932;2023-03-01T07:57:36;18.00;23.60
7341;DHT22;6870;50.944;6.932;2023-03-01T08:00:06;18.30;24.30
7341;DHT22;6870;50.944;6.932;2023-03-01T08:02:36;18.10;23.90
7341;DHT22;6870;50.944;6.932;2023-03-01T08:05:04;18.10;23.30
7341;DHT22;6870;50.944;6.932;2023-03-01T08:07:33;18.10;24.00
7341;DHT22;6870;50.944;6.932;2023-03-01T08:10:01;18.30;23.40
7341;DHT22;6870;50.944;6.932;2023-03-01T08:12:30;18.20;23.80
7341;DHT22;6870;50.944;6.932;2023-03-01T08:14:59;18.20;23.20
7341;DHT22;6870;50.944;6.932;2023-03-01T08:17:27;18.30;23.30
7341;DHT22;6870;50.944;6.932;2023-03-01T08:19:55;18.20;23.20
7341;DHT22;6870;50.944;6.932;2023-03-01T08:22:23;18.30;23.70
7341;DHT22;6870;50.944;6.932;2023-03-01T08:24:51;18.20;23.40
7341;DHT22;6870;50.944;6.932;2023-03-01T08:27:19;18.20;23.50
7341;DHT22;6870;50.944;6.932;2023-03-01T08:29:48;18.20;23.30
7341;DHT22;6870;50.944;6.932;2023-03-01T08:32:16;18.10;23.10
7341;DHT22;6870;50.944;6.932;2023-03-01T08:34:46;18.50;23.40
7341;DHT22;6870;50.944;6.932;2023-03-01T08:37:14;18.20;23.10
7341;DHT22;6870;50.944;6.932;2023-03-01T08:39:42;18.40;22.90
7341;DHT22;6870;50.944;6.932;2023-03-01T08:42:10;18.30;22.80
7341;DHT22;6870;50.944;6.932;2023-03-01T08:44:38;18.50;22.90
7341;DHT22;6870;50.944;6.932;2023-03-01T08:47:08;18.70;22.00
7341;DHT22;6870;50.944;6.932;2023-03-01T08:49:36;17.90;8.60
7341;DHT22;6870;50.944;6.932;2023-03-01T08:52:04;17.70;21.50
7341;DHT22;6870;50.944;6.932;2023-03-01T08:54:32;18.50;20.00
7341;DHT22;6870;50.944;6.932;2023-03-01T08:57:01;18.70;19.10
7341;DHT22;6870;50.944;6.932;2023-03-01T08:59:30;19.00;19.20
7341;DHT22;6870;50.944;6.932;2023-03-01T09:02:02;19.10;19.30
7341;DHT22;6870;50.944;6.932;2023-03-01T09:04:32;19.40;19.20
7341;DHT22;6870;50.944;6.932;2023-03-01T09:07:00;19.40;18.80
7341;DHT22;6870;50.944;6.932;2023-03-01T09:09:28;19.80;18.50
7341;DHT22;6870;50.944;6.932;2023-03-01T09:11:56;19.70;19.20
7341;DHT22;6870;50.944;6.932;2023-03-01T09:14:24;19.60;19.00
7341;DHT22;6870;50.944;6.932;2023-03-01T09:16:52;19.70;14.90
7341;DHT22;6870;50.944;6.932;2023-03-01T09:19:20;18.50;6.20
7341;DHT22;6870;50.944;6.932;2023-03-01T09:21:52;17.30;7.00
7341;DHT22;6870;50.944;6.932;2023-03-01T09:24:22;17.30;7.00
7341;DHT22;6870;50.944;6.932;2023-03-01T09:26:53;17.00;6.70
7341;DHT22;6870;50.944;6.932;2023-03-01T09:29:22;16.80;12.00
7341;DHT22;6870;50.944;6.932;2023-03-01T09:31:51;18.30;15.20
7341;DHT22;6870;50.944;6.932;2023-03-01T09:34:21;19.10;14.60
7341;DHT22;6870;50.944;6.932;2023-03-01T09:36:51;19.70;14.00
7341;DHT22;6870;50.944;6.932;2023-03-01T09:39:20;19.70;13.30
7341;DHT22;6870;50.944;6.932;2023-03-01T09:41:52;19.70;13.90
7341;DHT22;6870;50.944;6.932;2023-03-01T09:44:30;19.80;13.30
7341;DHT22;6870;50.944;6.932;2023-03-01T09:47:01;20.00;14.00
7341;DHT22;6870;50.944;6.932;2023-03-01T09:49:33;20.20;14.20
7341;DHT22;6870;50.944;6.932;2023-03-01T09:52:12;20.00;14.00
7341;DHT22;6870;50.944;6.932;2023-03-01T09:54:50;20.10;13.60
7341;DHT22;6870;50.944;6.932;2023-03-01T09:57:30;20.50;14.40
7341;DHT22;6870;50.944;6.932;2023-03-01T10:00:15;20.50;14.10
7341;DHT22;6870;50.944;6.932;2023-03-01T10:03:13;20.40;14.50
7341;DHT22;6870;50.944;6.932;2023-03-01T10:05:52;20.50;15.20
7341;DHT22;6870;50.944;6.932;2023-03-01T10:08:29;20.60;15.40
7341;DHT22;6870;50.944;6.932;2023-03-01T10:11:03;20.70;14.80
7341;DHT22;6870;50.944;6.932;2023-03-01T10:13:46;21.10;15.70
7341;DHT22;6870;50.944;6.932;2023-03-01T10:16:24;21.10;15.60
7341;DHT22;6870;50.944;6.932;2023-03-01T10:19:00;21.20;15.50
7341;DHT22;6870;50.944;6.932;2023-03-01T10:21:30;21.20;15.50
7341;DHT22;6870;50.944;6.932;2023-03-01T10:24:12;21.50;15.60
7341;DHT22;6870;50.944;6.932;2023-03-01T10:26:50;21.20;15.50
7341;DHT22;6870;50.944;6.932;2023-03-01T10:29:25;21.20;15.10
7341;DHT22;6870;50.944;6.932;2023-03-01T10:31:55;21.10;15.30
7341;DHT22;6870;50.944;6.932;2023-03-01T10:34:28;21.30;15.00
7341;DHT22;6870;50.944;6.932;2023-03-01T10:36:59;21.30;14.70
7341;DHT22;6870;50.944;6.932;2023-03-01T10:39:34;21.60;15.30
7341;DHT22;6870;50.944;6.932;2023-03-01T10:42:03;21.50;15.30
7341;DHT22;6870;50.944;6.932;2023-03-01T10:44:42;21.70;14.90
7341;DHT22;6870;50.944;6.932;2023-03-01T10:47:18;21.60;15.10
7341;DHT22;6870;50.944;6.932;2023-03-01T10:49:56;21.70;15.00
7341;DHT22;6870;50.944;6.932;2023-03-01T10:52:29;21.60;14.90
7341;DHT22;6870;50.944;6.932;2023-03-01T10:55:03;21.70;14.90
7341;DHT22;6870;50.944;6.932;2023-03-01T10:57:45;22.10;15.10
7341;DHT22;6870;50.944;6.932;2023-03-01T11:00:20;22.10;14.80
7341;DHT22;6870;50.944;6.932;2023-03-01T11:03:03;22.30;14.90
7341;DHT22;6870;50.944;6.932;2023-03-01T11:05:50;21.90;14.60
7341;DHT22;6870;50.944;6.932;2023-03-01T11:08:31;22.50;14.50
7341;DHT22;6870;50.944;6.932;2023-03-01T11:11:19;22.10;14.80
7341;DHT22;6870;50.944;6.932;2023-03-01T11:13:53;22.00;14.60
7341;DHT22;6870;50.944;6.932;2023-03-01T11:16:25;22.20;14.80
7341;DHT22;6870;50.944;6.932;2023-03-01T11:19:17;22.40;14.70
7341;DHT22;6870;50.944;6.932;2023-03-01T11:21:59;22.70;14.70
7341;DHT22;6870;50.944;6.932;2023-03-01T11:24:36;22.60;14.40
7341;DHT22;6870;50.944;6.932;2023-03-01T11:27:16;22.60;14.10
7341;DHT22;6870;50.944;6.932;2023-03-01T11:29:50;22.50;14.50
7341;DHT22;6870;50.944;6.932;2023-03-01T11:32:24;22.50;13.80
7341;DHT22;6870;50.944;6.932;2023-03-01T11:34:57;22.30;15.00
7341;DHT22;6870;50.944;6.932;2023-03-01T11:37:33;22.40;14.20
7341;DHT22;6870;50.944;6.932;2023-03-01T11:40:13;22.30;14.20
7341;DHT22;6870;50.944;6.932;2023-03-01T11:43:01;22.70;14.00
7341;DHT22;6870;50.944;6.932;2023-03-01T11:45:43;22.60;14.30
7341;DHT22;6870;50.944;6.932;2023-03-01T11:48:36;22.50;14.20
7341;DHT22;6870;50.944;6.932;2023-03-01T11:51:20;22.40;13.90
7341;DHT22;6870;50.944;6.932;2023-03-01T11:54:09;22.70;14.30
7341;DHT22;6870;50.944;6.932;2023-03-01T11:56:46;22.70;14.30
7341;DHT22;6870;50.944;6.932;2023-03-01T11:59:39;22.80;13.50
7341;DHT22;6870;50.944;6.932;2023-03-01T12:02:43;22.90;13.50
7341;DHT22;6870;50.944;6.932;2023-03-01T12:08:41;22.50;13.90
7341;DHT22;6870;50.944;6.932;2023-03-01T12:11:19;22.80;13.00
7341;DHT22;6870;50.944;6.932;2023-03-01T12:14:07;22.90;12.90
7341;DHT22;6870;50.944;6.932;2023-03-01T12:16:54;22.70;14.40
7341;DHT22;6870;50.944;6.932;2023-03-01T12:19:37;22.60;13.70
7341;DHT22;6870;50.944;6.932;2023-03-01T12:22:24;22.90;13.90
7341;DHT22;6870;50.944;6.932;2023-03-01T12:25:13;22.70;14.00
7341;DHT22;6870;50.944;6.932;2023-03-01T12:28:02;22.80;14.00
7341;DHT22;6870;50.944;6.932;2023-03-01T12:30:48;22.60;12.90
7341;DHT22;6870;50.944;6.932;2023-03-01T12:33:33;23.00;14.10
7341;DHT22;6870;50.944;6.932;2023-03-01T12:36:21;22.80;12.80
7341;DHT22;6870;50.944;6.932;2023-03-01T12:39:11;22.90;13.90
7341;DHT22;6870;50.944;6.932;2023-03-01T12:41:56;22.90;13.90
7341;DHT22;6870;50.944;6.932;2023-03-01T12:44:46;23.00;13.60
7341;DHT22;6870;50.944;6.932;2023-03-01T12:47:44;23.10;13.00
7341;DHT22;6870;50.944;6.932;2023-03-01T12:50:23;23.20;13.10
7341;DHT22;6870;50.944;6.932;2023-03-01T12:52:56;22.90;13.30
7341;DHT22;6870;50.944;6.932;2023-03-01T12:55:28;23.10;13.10
7341;DHT22;6870;50.944;6.932;2023-03-01T12:58:07;23.00;13.20
7341;DHT22;6870;50.944;6.932;2023-03-01T13:00:59;23.00;13.10
7341;DHT22;6870;50.944;6.932;2023-03-01T13:03:36;23.50;13.50
7341;DHT22;6870;50.944;6.932;2023-03-01T13:06:15;23.40;13.70
7341;DHT22;6870;50.944;6.932;2023-03-01T13:08:49;23.50;13.30
7341;DHT22;6870;50.944;6.932;2023-03-01T13:11:22;23.10;12.90
7341;DHT22;6870;50.944;6.932;2023-03-01T13:13:51;23.70;13.40
7341;DHT22;6870;50.944;6.932;2023-03-01T13:16:40;23.50;13.30
7341;DHT22;6870;50.944;6.932;2023-03-01T13:19:15;23.40;13.20
7341;DHT22;6870;50.944;6.932;2023-03-01T13:21:46;23.50;13.10
7341;DHT22;6870;50.944;6.932;2023-03-01T13:24:35;23.50;13.00
7341;DHT22;6870;50.944;6.932;2023-03-01T13:27:21;23.50;13.30
7341;DHT22;6870;50.944;6.932;2023-03-01T13:29:56;23.40;13.20
7341;DHT22;6870;50.944;6.932;2023-03-01T13:32:27;23.60;13.10
7341;DHT22;6870;50.944;6.932;2023-03-01T13:35:42;23.70;13.40
7341;DHT22;6870;50.944;6.932;2023-03-01T13:38:44;23.30;13.20
7341;DHT22;6870;50.944;6.932;2023-03-01T13:41:14;23.50;13.10
7341;DHT22;6870;50.944;6.932;2023-03-01T13:43:44;23.80;13.50
7341;DHT22;6870;50.944;6.932;2023-03-01T13:46:18;23.90;13.60
7341;DHT22;6870;50.944;6.932;2023-03-01T13:48:51;24.00;13.20
7341;DHT22;6870;50.944;6.932;2023-03-01T13:51:24;23.40;13.20
7341;DHT22;6870;50.944;6.932;2023-03-01T13:53:56;23.90;13.20
7341;DHT22;6870;50.944;6.932;2023-03-01T13:56:27;23.90;13.40
7341;DHT22;6870;50.944;6.932;2023-03-01T13:58:59;23.90;13.60
7341;DHT22;6870;50.944;6.932;2023-03-01T14:01:32;24.00;13.60
7341;DHT22;6870;50.944;6.932;2023-03-01T14:04:03;23.70;13.10
7341;DHT22;6870;50.944;6.932;2023-03-01T14:06:42;23.70;13.40
7341;DHT22;6870;50.944;6.932;2023-03-01T14:09:16;23.80;13.50
7341;DHT22;6870;50.944;6.932;2023-03-01T14:12:02;23.80;13.50
7341;DHT22;6870;50.944;6.932;2023-03-01T14:14:47;23.60;13.10
7341;DHT22;6870;50.944;6.932;2023-03-01T14:17:38;24.10;13.60
7341;DHT22;6870;50.944;6.932;2023-03-01T14:20:21;24.20;13.80
7341;DHT22;6870;50.944;6.932;2023-03-01T14:22:53;23.90;13.10
7341;DHT22;6870;50.944;6.932;2023-03-01T14:25:29;23.70;13.30
7341;DHT22;6870;50.944;6.932;2023-03-01T14:28:04;23.60;13.00
7341;DHT22;6870;50.944;6.932;2023-03-01T14:30:43;24.00;13.40
7341;DHT22;6870;50.944;6.932;2023-03-01T14:33:20;23.90;13.40
7341;DHT22;6870;50.944;6.932;2023-03-01T14:35:56;23.50;12.90
7341;DHT22;6870;50.944;6.932;2023-03-01T14:38:32;23.40;13.20
7341;DHT22;6870;50.944;6.932;2023-03-01T14:41:06;23.90;13.80
7341;DHT22;6870;50.944;6.932;2023-03-01T14:43:37;23.40;13.40
7341;DHT22;6870;50.944;6.932;2023-03-01T14:46:19;23.40;13.70
7341;DHT22;6870;50.944;6.932;2023-03-01T14:48:50;23.90;14.30
7341;DHT22;6870;50.944;6.932;2023-03-01T14:51:19;23.50;14.00
7341;DHT22;6870;50.944;6.932;2023-03-01T14:53:47;23.30;13.30
7341;DHT22;6870;50.944;6.932;2023-03-01T14:56:18;23.70;13.50
7341;DHT22;6870;50.944;6.932;2023-03-01T14:58:51;23.60;13.80
7341;DHT22;6870;50.944;6.932;2023-03-01T15:01:20;23.70;14.30
7341;DHT22;6870;50.944;6.932;2023-03-01T15:03:49;23.60;13.80
7341;DHT22;6870;50.944;6.932;2023-03-01T15:06:20;23.90;14.40
7341;DHT22;6870;50.944;6.932;2023-03-01T15:08:51;23.80;14.40
7341;DHT22;6870;50.944;6.932;2023-03-01T15:11:23;23.80;14.10
7341;DHT22;6870;50.944;6.932;2023-03-01T15:13:52;23.50;14.00
7341;DHT22;6870;50.944;6.932;2023-03-01T15:16:23;23.40;13.30
7341;DHT22;6870;50.944;6.932;2023-03-01T15:18:54;23.40;14.00
7341;DHT22;6870;50.944;6.932;2023-03-01T15:21:26;23.70;14.40
7341;DHT22;6870;50.944;6.932;2023-03-01T15:23:57;23.40;13.20
7341;DHT22;6870;50.944;6.932;2023-03-01T15:26:31;23.30;14.20
7341;DHT22;6870;50.944;6.932;2023-03-01T15:29:00;23.50;13.40
7341;DHT22;6870;50.944;6.932;2023-03-01T15:31:32;23.20;14.30
7341;DHT22;6870;50.944;6.932;2023-03-01T15:34:09;23.10;14.20
7341;DHT22;6870;50.944;6.932;2023-03-01T15:36:47;23.20;13.70
7341;DHT22;6870;50.944;6.932;2023-03-01T15:39:47;23.10;14.20
7341;DHT22;6870;50.944;6.932;2023-03-01T15:45:23;23.10;14.20
7341;DHT22;6870;50.944;6.932;2023-03-01T15:47:54;23.10;14.60
7341;DHT22;6870;50.944;6.932;2023-03-01T15:50:27;23.30;14.70
7341;DHT22;6870;50.944;6.932;2023-03-01T15:52:57;23.10;14.80
7341;DHT22;6870;50.944;6.932;2023-03-01T15:55:28;23.00;14.60
7341;DHT22;6870;50.944;6.932;2023-03-01T15:57:59;22.80;14.40
7341;DHT22;6870;50.944;6.932;2023-03-01T16:00:30;23.10;14.10
7341;DHT22;6870;50.944;6.932;2023-03-01T16:02:58;23.00;14.40
7341;DHT22;6870;50.944;6.932;2023-03-01T16:05:28;23.10;15.00
7341;DHT22;6870;50.944;6.932;2023-03-01T16:07:58;22.80;14.80
7341;DHT22;6870;50.944;6.932;2023-03-01T16:10:27;22.90;15.20
7341;DHT22;6870;50.944;6.932;2023-03-01T16:12:55;22.80;15.30
7341;DHT22;6870;50.944;6.932;2023-03-01T16:15:25;22.70;15.10
7341;DHT22;6870;50.944;6.932;2023-03-01T16:17:59;22.70;15.50
7341;DHT22;6870;50.944;6.932;2023-03-01T16:20:28;22.50;15.50
7341;DHT22;6870;50.944;6.932;2023-03-01T16:23:00;22.50;15.60
7341;DHT22;6870;50.944;6.932;2023-03-01T16:25:30;22.60;15.30
7341;DHT22;6870;50.944;6.932;2023-03-01T16:27:59;22.20;15.60
7341;DHT22;6870;50.944;6.932;2023-03-01T16:30:31;22.60;15.40
7341;DHT22;6870;50.944;6.932;2023-03-01T16:33:04;22.40;15.70
7341;DHT22;6870;50.944;6.932;2023-03-01T16:35:51;22.60;16.20
7341;DHT22;6870;50.944;6.932;2023-03-01T16:38:19;22.20;15.90
7341;DHT22;6870;50.944;6.932;2023-03-01T16:40:49;22.40;15.60
7341;DHT22;6870;50.944;6.932;2023-03-01T16:43:18;22.40;16.30
7341;DHT22;6870;50.944;6.932;2023-03-01T16:45:46;22.10;16.10